createdAt,value
2017-09-10T00:02:08.796Z,0.80
2017-09-10T00:04:36.454Z,1.40
2017-09-10T00:07:03.929Z,0.90
2017-09-10T00:09:31.385Z,1.00
2017-09-10T00:11:58.881Z,1.20
2017-09-10T00:14:26.324Z,0.90
2017-09-10T00:16:53.829Z,1.37
2017-09-10T00:19:21.285Z,0.70
2017-09-10T00:21:48.761Z,1.13
2017-09-10T00:24:16.220Z,0.97
2017-09-10T00:26:43.761Z,1.00
2017-09-10T00:29:11.312Z,2.00
2017-09-10T00:31:38.892Z,1.50
2017-09-10T00:34:06.481Z,1.37
2017-09-10T00:36:33.961Z,1.70
2017-09-10T00:39:01.416Z,1.90
2017-09-10T00:41:29.302Z,1.60
2017-09-10T00:43:56.869Z,1.57
2017-09-10T00:46:24.354Z,1.80
2017-09-10T00:48:51.815Z,1.57
2017-09-10T00:51:19.337Z,1.10
2017-09-10T00:53:47.304Z,1.47
2017-09-10T00:56:14.782Z,1.33
2017-09-10T00:58:42.228Z,1.30
2017-09-10T01:01:09.676Z,1.30
2017-09-10T01:03:37.157Z,1.33
2017-09-10T01:06:04.745Z,1.20
2017-09-10T01:08:32.250Z,1.27
2017-09-10T01:10:59.812Z,1.87
2017-09-10T01:13:27.284Z,1.47
2017-09-10T01:15:54.731Z,1.40
2017-09-10T01:18:22.207Z,1.33
2017-09-10T01:20:50.305Z,1.10
2017-09-10T01:23:17.817Z,1.17
2017-09-10T01:25:45.264Z,1.17
2017-09-10T01:28:12.791Z,1.60
2017-09-10T01:30:40.281Z,1.10
2017-09-10T01:33:07.820Z,1.37
2017-09-10T01:35:35.314Z,0.80
2017-09-10T01:38:02.780Z,1.10
2017-09-10T01:40:30.237Z,0.97
2017-09-10T01:42:57.768Z,1.00
2017-09-10T01:45:25.642Z,0.90
2017-09-10T01:47:53.112Z,1.03
2017-09-10T01:50:20.580Z,1.37
2017-09-10T01:52:48.063Z,1.30
2017-09-10T01:55:15.544Z,2.00
2017-09-10T01:57:43.373Z,1.20
2017-09-10T02:00:10.874Z,1.30
2017-09-10T02:02:38.349Z,1.43
2017-09-10T02:05:05.828Z,1.30
2017-09-10T02:07:33.365Z,1.03
2017-09-10T02:10:01.071Z,1.10
2017-09-10T02:12:28.525Z,1.00
2017-09-10T02:14:55.997Z,1.40
2017-09-10T02:17:23.489Z,1.00
2017-09-10T02:19:50.973Z,1.40
2017-09-10T02:22:18.641Z,1.13
2017-09-10T02:24:46.153Z,1.43
2017-09-10T02:27:13.646Z,1.87
2017-09-10T02:29:41.213Z,1.40
2017-09-10T02:32:08.663Z,1.57
2017-09-10T02:34:36.162Z,0.93
2017-09-10T02:37:03.623Z,1.00
2017-09-10T02:39:31.117Z,1.10
2017-09-10T02:41:58.673Z,1.20
2017-09-10T02:44:26.226Z,1.13
2017-09-10T02:46:53.717Z,1.60
2017-09-10T02:49:21.202Z,1.57
2017-09-10T02:51:48.647Z,1.20
2017-09-10T02:54:16.131Z,1.40
2017-09-10T02:56:43.613Z,1.50
2017-09-10T02:59:11.297Z,1.60
2017-09-10T03:01:38.885Z,1.00
2017-09-10T03:04:06.370Z,1.50
2017-09-10T03:06:33.820Z,1.40
2017-09-10T03:09:01.306Z,1.17
2017-09-10T03:11:28.798Z,1.60
2017-09-10T03:13:56.267Z,1.90
2017-09-10T03:16:23.748Z,0.93
2017-09-10T03:18:51.196Z,1.37
2017-09-10T03:21:18.669Z,1.33
2017-09-10T03:23:46.131Z,1.87
2017-09-10T03:26:13.628Z,2.30
2017-09-10T03:28:41.084Z,1.53
2017-09-10T03:31:08.583Z,1.07
2017-09-10T03:33:36.085Z,1.70
2017-09-10T03:36:03.645Z,2.07
2017-09-10T03:38:31.096Z,1.63
2017-09-10T03:40:58.568Z,3.07
2017-09-10T03:43:26.024Z,3.20
2017-09-10T03:45:53.560Z,3.73
2017-09-10T03:48:21.120Z,4.10
2017-09-10T03:50:48.588Z,3.93
2017-09-10T03:53:16.041Z,3.83
2017-09-10T03:55:43.541Z,4.20
2017-09-10T03:58:11.005Z,4.47
2017-09-10T04:00:38.501Z,5.00
2017-09-10T04:03:05.954Z,4.80
2017-09-10T04:05:33.410Z,5.07
2017-09-10T04:08:00.880Z,4.80
2017-09-10T04:10:28.384Z,4.87
2017-09-10T04:12:55.886Z,4.40
2017-09-10T04:15:23.348Z,4.70
2017-09-10T04:17:50.840Z,4.97
2017-09-10T04:20:18.302Z,6.00
2017-09-10T04:22:45.773Z,5.47
2017-09-10T04:25:13.467Z,6.00
2017-09-10T04:27:41.037Z,5.90
2017-09-10T04:30:08.606Z,5.20
2017-09-10T04:32:36.157Z,4.93
2017-09-10T04:35:03.611Z,4.60
2017-09-10T04:37:31.627Z,5.80
2017-09-10T04:39:59.115Z,6.23
2017-09-10T04:42:26.593Z,5.03
2017-09-10T04:44:54.069Z,5.37
2017-09-10T04:47:21.553Z,5.40
2017-09-10T04:49:49.000Z,4.63
2017-09-10T04:52:16.525Z,4.57
2017-09-10T04:54:44.000Z,5.83
2017-09-10T04:57:11.471Z,5.00
2017-09-10T04:59:39.005Z,5.97
2017-09-10T05:02:06.469Z,6.10
2017-09-10T05:04:34.013Z,5.60
2017-09-10T05:07:01.579Z,5.87
2017-09-10T05:09:29.062Z,5.87
2017-09-10T05:11:56.512Z,6.60
2017-09-10T05:14:24.048Z,6.70
2017-09-10T05:16:51.537Z,6.00
2017-09-10T05:19:19.013Z,5.93
2017-09-10T05:21:46.541Z,6.60
2017-09-10T05:24:14.073Z,6.10
2017-09-10T05:26:41.541Z,6.80
2017-09-10T05:29:09.100Z,5.30
2017-09-10T05:31:36.558Z,5.87
2017-09-10T05:34:04.077Z,5.50
2017-09-10T05:36:31.552Z,5.37
2017-09-10T05:38:59.026Z,5.70
2017-09-10T05:41:26.573Z,5.87
2017-09-10T05:43:54.156Z,7.37
2017-09-10T05:46:21.613Z,6.80
2017-09-10T05:48:49.105Z,5.77
2017-09-10T05:51:16.561Z,5.40
2017-09-10T05:53:44.041Z,6.17
2017-09-10T05:56:11.495Z,6.13
2017-09-10T05:58:39.080Z,6.50
2017-09-10T06:01:06.532Z,6.67
2017-09-10T06:03:34.025Z,6.37
2017-09-10T06:06:01.502Z,6.80
2017-09-10T06:08:29.092Z,5.40
2017-09-10T06:10:56.572Z,5.70
2017-09-10T06:13:24.131Z,5.77
2017-09-10T06:15:51.618Z,6.10
2017-09-10T06:18:19.105Z,5.90
2017-09-10T06:20:46.572Z,7.40
2017-09-10T06:23:14.070Z,6.17
2017-09-10T06:25:41.648Z,7.20
2017-09-10T06:28:09.105Z,6.17
2017-09-10T06:30:36.634Z,7.80
2017-09-10T06:33:04.100Z,5.90
2017-09-10T06:35:31.563Z,5.97
2017-09-10T06:37:59.022Z,6.23
2017-09-10T06:40:26.573Z,5.10
2017-09-10T06:42:54.045Z,5.60
2017-09-10T06:45:21.529Z,5.47
2017-09-10T06:47:48.988Z,7.03
2017-09-10T06:50:16.461Z,7.03
2017-09-10T06:52:43.951Z,7.43
2017-09-10T06:55:11.428Z,8.03
2017-09-10T06:57:38.952Z,6.70
2017-09-10T07:00:06.438Z,6.63
2017-09-10T07:02:33.972Z,6.80
2017-09-10T07:05:01.433Z,6.40
2017-09-10T07:07:28.911Z,6.83
2017-09-10T07:09:56.373Z,6.83
2017-09-10T07:12:23.852Z,6.43
2017-09-10T07:14:51.309Z,6.23
2017-09-10T07:17:18.809Z,7.80
2017-09-10T07:19:46.256Z,7.70
2017-09-10T07:22:13.725Z,8.17
2017-09-10T07:24:41.231Z,6.87
2017-09-10T07:27:08.744Z,7.80
2017-09-10T07:29:36.197Z,6.97
2017-09-10T07:32:03.680Z,7.50
2017-09-10T07:34:31.221Z,7.77
2017-09-10T07:36:59.168Z,8.00
2017-09-10T07:39:26.659Z,7.10
2017-09-10T07:41:54.127Z,6.27
2017-09-10T07:44:21.585Z,6.70
2017-09-10T07:46:49.093Z,6.43
2017-09-10T07:49:16.849Z,6.97
2017-09-10T07:51:44.344Z,6.20
2017-09-10T07:54:11.837Z,6.10
2017-09-10T07:56:39.320Z,6.87
2017-09-10T07:59:06.781Z,6.20
2017-09-10T08:01:34.264Z,5.63
2017-09-10T08:04:01.781Z,5.20
2017-09-10T08:06:29.242Z,5.87
2017-09-10T08:08:56.716Z,6.03
2017-09-10T08:11:24.164Z,5.60
2017-09-10T08:13:51.652Z,4.50
2017-09-10T08:16:19.125Z,4.40
2017-09-10T08:18:46.610Z,3.63
2017-09-10T08:21:14.063Z,3.57
2017-09-10T08:23:41.527Z,3.30
2017-09-10T08:26:09.029Z,3.50
2017-09-10T08:28:36.584Z,3.23
2017-09-10T08:31:04.146Z,2.70
2017-09-10T08:33:31.704Z,2.43
2017-09-10T08:35:59.261Z,3.23
2017-09-10T08:38:28.031Z,3.03
2017-09-10T08:40:55.572Z,2.83
2017-09-10T08:43:23.049Z,2.90
2017-09-10T08:45:50.501Z,2.60
2017-09-10T08:48:18.027Z,2.73
2017-09-10T08:50:45.481Z,2.37
2017-09-10T08:53:12.988Z,2.77
2017-09-10T08:55:40.445Z,1.80
2017-09-10T08:58:07.912Z,1.50
2017-09-10T09:00:35.405Z,1.67
2017-09-10T09:03:02.885Z,2.10
2017-09-10T09:05:30.380Z,2.00
2017-09-10T09:07:57.839Z,1.23
2017-09-10T09:10:25.354Z,1.60
2017-09-10T09:12:53.094Z,2.27
2017-09-10T09:15:20.585Z,1.93
2017-09-10T09:17:48.069Z,1.80
2017-09-10T09:20:15.624Z,1.57
2017-09-10T09:22:43.191Z,1.67
2017-09-10T09:25:10.669Z,1.80
2017-09-10T09:27:38.129Z,1.77
2017-09-10T09:30:05.608Z,1.67
2017-09-10T09:32:33.064Z,1.60
2017-09-10T09:35:00.570Z,1.50
2017-09-10T09:37:28.045Z,1.10
2017-09-10T09:39:55.519Z,1.33
2017-09-10T09:42:22.977Z,1.57
2017-09-10T09:44:50.460Z,1.17
2017-09-10T09:47:17.934Z,1.80
2017-09-10T09:49:45.453Z,1.20
2017-09-10T09:52:12.937Z,1.90
2017-09-10T09:54:40.437Z,3.50
2017-09-10T09:57:07.884Z,2.63
2017-09-10T09:59:35.401Z,2.93
2017-09-10T10:02:02.918Z,3.10
2017-09-10T10:04:30.465Z,2.83
2017-09-10T10:06:57.945Z,2.70
2017-09-10T10:09:25.415Z,2.70
2017-09-10T10:11:52.893Z,2.40
2017-09-10T10:14:20.349Z,2.97
2017-09-10T10:16:47.829Z,2.83
2017-09-10T10:19:15.281Z,3.07
2017-09-10T10:21:42.753Z,2.40
2017-09-10T10:24:10.224Z,3.17
2017-09-10T10:26:37.778Z,2.07
2017-09-10T10:29:05.326Z,1.90
2017-09-10T10:31:32.888Z,2.17
2017-09-10T10:34:00.332Z,2.03
2017-09-10T10:36:28.080Z,2.27
2017-09-10T10:38:55.569Z,1.57
2017-09-10T10:41:23.049Z,1.50
2017-09-10T10:43:50.509Z,1.70
2017-09-10T10:46:18.000Z,1.50
2017-09-10T10:48:45.484Z,1.50
2017-09-10T10:51:12.952Z,2.40
2017-09-10T10:53:40.517Z,2.20
2017-09-10T10:56:08.068Z,3.00
2017-09-10T10:58:35.544Z,2.80
2017-09-10T11:01:03.082Z,3.80
2017-09-10T11:03:30.549Z,3.20
2017-09-10T11:05:58.099Z,3.63
2017-09-10T11:08:25.585Z,2.50
2017-09-10T11:10:53.163Z,2.57
2017-09-10T11:13:20.633Z,3.20
2017-09-10T11:15:48.133Z,5.37
2017-09-10T11:18:15.685Z,3.53
2017-09-10T11:20:43.132Z,4.20
2017-09-10T11:23:10.648Z,4.97
2017-09-10T11:25:38.097Z,4.37
2017-09-10T11:28:06.437Z,4.50
2017-09-10T11:30:33.990Z,5.80
2017-09-10T11:33:01.465Z,6.63
2017-09-10T11:35:29.006Z,5.57
2017-09-10T11:37:56.868Z,6.40
2017-09-10T11:40:24.317Z,5.90
2017-09-10T11:42:51.864Z,5.60
2017-09-10T11:45:19.349Z,5.63
2017-09-10T11:47:46.855Z,5.10
2017-09-10T11:50:14.313Z,5.50
2017-09-10T11:52:41.829Z,5.50
2017-09-10T11:55:09.285Z,5.33
2017-09-10T11:57:36.756Z,6.00
2017-09-10T12:00:04.225Z,5.57
2017-09-10T12:02:31.685Z,5.40
2017-09-10T12:04:59.165Z,4.93
2017-09-10T12:07:26.617Z,6.10
2017-09-10T12:09:54.091Z,5.80
2017-09-10T12:12:21.554Z,5.00
2017-09-10T12:14:49.129Z,4.23
2017-09-10T12:17:16.618Z,4.90
2017-09-10T12:19:44.162Z,3.83
2017-09-10T12:22:11.617Z,3.60
2017-09-10T12:24:39.360Z,3.50
2017-09-10T12:27:06.816Z,3.40
2017-09-10T12:29:34.381Z,2.40
2017-09-10T12:32:01.855Z,2.80
2017-09-10T12:34:29.400Z,3.20
2017-09-10T12:36:56.888Z,2.53
2017-09-10T12:39:24.364Z,2.37
2017-09-10T12:41:51.833Z,2.13
2017-09-10T12:44:19.325Z,1.97
2017-09-10T12:46:46.790Z,2.20
2017-09-10T12:49:14.264Z,2.00
2017-09-10T12:51:41.716Z,1.73
2017-09-10T12:54:09.257Z,2.03
2017-09-10T12:56:36.707Z,1.73
2017-09-10T12:59:04.181Z,1.43
2017-09-10T13:01:31.732Z,2.30
2017-09-10T13:03:59.208Z,1.80
2017-09-10T13:06:26.748Z,1.50
2017-09-10T13:08:54.223Z,1.60
2017-09-10T13:11:21.713Z,1.57
2017-09-10T13:13:49.168Z,1.57
2017-09-10T13:16:16.652Z,1.60
2017-09-10T13:18:44.128Z,2.23
2017-09-10T13:21:11.689Z,1.80
2017-09-10T13:23:39.255Z,2.60
2017-09-10T13:26:06.761Z,2.80
2017-09-10T13:28:34.246Z,2.83
2017-09-10T13:31:01.724Z,1.60
2017-09-10T13:33:29.273Z,1.43
2017-09-10T13:35:57.293Z,2.03
2017-09-10T13:38:24.760Z,1.97
2017-09-10T13:40:52.239Z,2.13
2017-09-10T13:43:19.698Z,1.90
2017-09-10T13:45:47.282Z,2.30
2017-09-10T13:48:14.841Z,2.60
2017-09-10T13:50:42.370Z,3.87
2017-09-10T13:53:09.828Z,5.60
2017-09-10T13:55:37.313Z,4.30
2017-09-10T13:58:04.777Z,5.57
2017-09-10T14:00:32.251Z,5.20
2017-09-10T14:02:59.797Z,4.87
2017-09-10T14:05:27.252Z,5.73
2017-09-10T14:07:54.724Z,6.43
2017-09-10T14:10:22.183Z,6.70
2017-09-10T14:12:49.676Z,6.40
2017-09-10T14:15:17.156Z,6.37
2017-09-10T14:17:44.716Z,6.10
2017-09-10T14:20:12.169Z,6.80
2017-09-10T14:22:39.732Z,5.00
2017-09-10T14:25:07.193Z,5.67
2017-09-10T14:27:34.672Z,4.43
2017-09-10T14:30:02.112Z,4.90
2017-09-10T14:32:29.585Z,4.00
2017-09-10T14:34:57.469Z,3.90
2017-09-10T14:37:24.946Z,5.03
2017-09-10T14:39:52.444Z,4.10
2017-09-10T14:42:20.001Z,3.63
2017-09-10T14:44:47.561Z,2.90
2017-09-10T14:47:15.367Z,2.90
2017-09-10T14:49:42.880Z,3.20
2017-09-10T14:52:10.365Z,2.77
2017-09-10T14:54:37.853Z,2.13
2017-09-10T14:57:05.338Z,2.20
2017-09-10T14:59:32.789Z,2.37
2017-09-10T15:02:00.267Z,1.93
2017-09-10T15:04:27.733Z,2.20
2017-09-10T15:06:55.209Z,1.90
2017-09-10T15:09:22.684Z,1.90
2017-09-10T15:11:50.156Z,1.90
2017-09-10T15:14:17.703Z,2.00
2017-09-10T15:16:45.160Z,2.00
2017-09-10T15:19:12.769Z,1.93
2017-09-10T15:21:40.249Z,2.33
2017-09-10T15:24:07.745Z,1.93
2017-09-10T15:26:35.252Z,1.70
2017-09-10T15:29:02.728Z,1.93
2017-09-10T15:31:30.180Z,1.50
2017-09-10T15:33:57.665Z,1.63
2017-09-10T15:36:25.125Z,1.40
2017-09-10T15:38:52.607Z,1.17
2017-09-10T15:41:20.070Z,1.83
2017-09-10T15:43:47.577Z,1.70
2017-09-10T15:46:15.052Z,1.83
2017-09-10T15:48:42.560Z,1.47
2017-09-10T15:51:10.113Z,1.47
2017-09-10T15:53:37.669Z,1.63
2017-09-10T15:56:05.129Z,1.90
2017-09-10T15:58:32.633Z,1.40
2017-09-10T16:01:00.081Z,1.50
2017-09-10T16:03:27.597Z,1.30
2017-09-10T16:05:55.075Z,1.10
2017-09-10T16:08:22.541Z,1.20
2017-09-10T16:10:50.961Z,1.63
2017-09-10T16:13:18.422Z,1.23
2017-09-10T16:15:45.904Z,1.50
2017-09-10T16:18:13.464Z,1.47
2017-09-10T16:20:41.053Z,1.10
2017-09-10T16:23:08.782Z,1.03
2017-09-10T16:25:36.255Z,1.13
2017-09-10T16:28:03.829Z,1.17
2017-09-10T16:30:31.366Z,3.30
2017-09-10T16:32:58.820Z,5.13
2017-09-10T16:35:26.563Z,1.10
2017-09-10T16:37:54.007Z,1.00
2017-09-10T16:40:21.492Z,1.30
2017-09-10T16:42:48.957Z,1.40
2017-09-10T16:45:16.517Z,1.00
2017-09-10T16:47:43.965Z,1.23
2017-09-10T16:50:11.468Z,1.30
2017-09-10T16:52:38.983Z,1.30
2017-09-10T16:55:06.547Z,1.00
2017-09-10T16:57:34.110Z,1.70
2017-09-10T17:00:01.656Z,1.60
2017-09-10T17:02:29.127Z,1.20
2017-09-10T17:04:56.619Z,1.33
2017-09-10T17:07:24.135Z,1.10
2017-09-10T17:09:51.593Z,1.13
2017-09-10T17:12:19.073Z,5.67
2017-09-10T17:14:46.612Z,1.87
2017-09-10T17:17:14.097Z,1.67
2017-09-10T17:19:41.543Z,2.13
2017-09-10T17:22:09.019Z,2.27
2017-09-10T17:24:36.475Z,1.40
2017-09-10T17:27:03.956Z,1.80
2017-09-10T17:29:31.404Z,1.57
2017-09-10T17:31:58.877Z,1.30
2017-09-10T17:34:27.168Z,1.40
2017-09-10T17:36:54.733Z,1.67
2017-09-10T17:39:22.214Z,1.50
2017-09-10T17:41:49.700Z,1.63
2017-09-10T17:44:17.169Z,1.90
2017-09-10T17:46:44.673Z,1.47
2017-09-10T17:49:12.217Z,1.47
2017-09-10T17:51:39.795Z,19.37
2017-09-10T17:54:07.254Z,4.73
2017-09-10T17:56:34.803Z,3.00
2017-09-10T17:59:02.350Z,3.00
2017-09-10T18:01:29.859Z,3.40
2017-09-10T18:03:57.373Z,2.83
2017-09-10T18:06:24.924Z,3.63
2017-09-10T18:08:52.485Z,3.60
2017-09-10T18:11:19.939Z,2.40
2017-09-10T18:13:47.414Z,2.10
2017-09-10T18:16:14.870Z,1.93
2017-09-10T18:18:42.343Z,2.03
2017-09-10T18:21:09.892Z,2.50
2017-09-10T18:23:37.364Z,2.20
2017-09-10T18:26:04.827Z,2.60
2017-09-10T18:28:32.307Z,2.20
2017-09-10T18:30:59.763Z,1.80
2017-09-10T18:33:27.279Z,1.50
2017-09-10T18:35:54.763Z,1.73
2017-09-10T18:38:22.228Z,2.20
2017-09-10T18:40:49.683Z,3.50
2017-09-10T18:43:17.160Z,3.37
2017-09-10T18:45:44.617Z,2.70
2017-09-10T18:48:12.109Z,2.67
2017-09-10T18:50:39.581Z,3.00
2017-09-10T18:53:07.061Z,2.40
2017-09-10T18:55:34.572Z,2.40
2017-09-10T18:58:02.057Z,2.53
2017-09-10T19:00:29.523Z,2.00
2017-09-10T19:02:57.049Z,2.50
2017-09-10T19:05:24.528Z,2.50
2017-09-10T19:07:52.004Z,2.60
2017-09-10T19:10:19.524Z,2.77
2017-09-10T19:12:47.383Z,3.13
2017-09-10T19:15:14.949Z,2.87
2017-09-10T19:17:42.428Z,4.23
2017-09-10T19:20:09.961Z,3.40
2017-09-10T19:22:37.453Z,2.00
2017-09-10T19:25:05.122Z,2.40
2017-09-10T19:27:32.605Z,2.20
2017-09-10T19:30:00.121Z,2.40
2017-09-10T19:32:27.661Z,2.07
2017-09-10T19:34:55.135Z,2.77
2017-09-10T19:37:23.053Z,3.10
2017-09-10T19:39:50.577Z,3.60
2017-09-10T19:42:18.082Z,4.00
2017-09-10T19:44:45.578Z,4.53
2017-09-10T19:47:13.041Z,3.77
2017-09-10T19:49:40.525Z,3.20
2017-09-10T19:52:08.013Z,3.50
2017-09-10T19:54:35.587Z,3.83
2017-09-10T19:57:03.167Z,2.60
2017-09-10T19:59:30.645Z,2.83
2017-09-10T20:01:58.202Z,3.37
2017-09-10T20:04:25.731Z,2.50
2017-09-10T20:06:53.204Z,3.20
2017-09-10T20:09:20.717Z,2.63
2017-09-10T20:11:48.185Z,2.33
2017-09-10T20:14:16.057Z,2.77
2017-09-10T20:16:43.611Z,2.43
2017-09-10T20:19:11.070Z,2.57
2017-09-10T20:21:38.549Z,2.60
2017-09-10T20:24:06.060Z,2.60
2017-09-10T20:26:33.535Z,2.50
2017-09-10T20:29:01.098Z,2.40
2017-09-10T20:31:28.648Z,2.80
2017-09-10T20:33:56.114Z,2.47
2017-09-10T20:36:23.609Z,2.23
2017-09-10T20:38:51.103Z,2.50
2017-09-10T20:41:18.577Z,2.53
2017-09-10T20:43:46.038Z,2.60
2017-09-10T20:46:13.596Z,2.63
2017-09-10T20:48:41.073Z,2.50
2017-09-10T20:51:08.551Z,2.67
2017-09-10T20:53:36.013Z,1.80
2017-09-10T20:56:03.501Z,2.30
2017-09-10T20:58:30.957Z,2.47
2017-09-10T21:00:58.449Z,2.80
2017-09-10T21:03:25.912Z,2.00
2017-09-10T21:05:53.389Z,1.80
2017-09-10T21:08:20.872Z,2.20
2017-09-10T21:10:48.355Z,2.43
2017-09-10T21:13:15.825Z,1.90
2017-09-10T21:15:43.289Z,3.17
2017-09-10T21:18:10.765Z,2.33
2017-09-10T21:20:38.222Z,2.20
2017-09-10T21:23:05.696Z,2.40
2017-09-10T21:25:33.354Z,1.90
2017-09-10T21:28:00.823Z,2.60
2017-09-10T21:30:28.318Z,2.93
2017-09-10T21:32:56.132Z,2.20
2017-09-10T21:35:23.650Z,2.37
2017-09-10T21:37:51.149Z,2.60
2017-09-10T21:40:18.680Z,2.57
2017-09-10T21:42:46.164Z,2.63
2017-09-10T21:45:13.669Z,1.67
2017-09-10T21:47:41.389Z,2.40
2017-09-10T21:50:09.045Z,1.87
2017-09-10T21:52:36.525Z,2.03
2017-09-10T21:55:04.048Z,1.47
2017-09-10T21:57:31.524Z,1.50
2017-09-10T21:59:58.973Z,2.10
2017-09-10T22:02:26.529Z,1.20
2017-09-10T22:04:53.972Z,1.30
2017-09-10T22:07:21.445Z,1.00
2017-09-10T22:09:48.950Z,1.80
2017-09-10T22:12:16.397Z,1.10
2017-09-10T22:14:43.981Z,1.20
2017-09-10T22:17:11.433Z,1.80
2017-09-10T22:19:38.912Z,2.40
2017-09-10T22:22:06.361Z,1.57
2017-09-10T22:24:33.892Z,0.90
2017-09-10T22:27:01.381Z,1.10
2017-09-10T22:29:28.856Z,1.00
2017-09-10T22:31:56.321Z,0.87
2017-09-10T22:34:23.821Z,1.33
2017-09-10T22:36:51.432Z,1.27
2017-09-10T22:39:18.905Z,0.90
2017-09-10T22:41:46.429Z,1.50
2017-09-10T22:44:13.888Z,1.33
2017-09-10T22:46:41.368Z,1.10
2017-09-10T22:49:09.688Z,1.10
2017-09-10T22:51:37.133Z,1.10
2017-09-10T22:54:04.600Z,0.83
2017-09-10T22:56:32.188Z,0.90
2017-09-10T22:58:59.705Z,0.97
2017-09-10T23:01:27.755Z,0.90
2017-09-10T23:03:55.229Z,0.60
2017-09-10T23:06:22.705Z,0.93
2017-09-10T23:08:50.169Z,0.63
2017-09-10T23:11:17.653Z,0.70
2017-09-10T23:13:45.323Z,0.97
2017-09-10T23:16:12.823Z,1.00
2017-09-10T23:18:40.277Z,0.83
2017-09-10T23:21:07.782Z,1.17
2017-09-10T23:23:35.238Z,0.90
2017-09-10T23:26:02.923Z,0.83
2017-09-10T23:28:30.425Z,0.90
2017-09-10T23:30:57.896Z,0.63
2017-09-10T23:33:25.353Z,1.00
2017-09-10T23:35:52.830Z,0.97
2017-09-10T23:38:20.360Z,0.93
2017-09-10T23:40:47.909Z,1.20
2017-09-10T23:43:15.361Z,0.73
2017-09-10T23:45:42.831Z,0.87
2017-09-10T23:48:10.279Z,0.83
2017-09-10T23:50:37.837Z,0.97
2017-09-10T23:53:05.416Z,0.90
2017-09-10T23:55:32.889Z,0.80
2017-09-10T23:58:00.419Z,0.90
